Terminal Aerodrome Forecast
Issued by NWS Wichita, KS

Home | Current Version | Previous Version | Text Only | Print | Product List | Glossary On
Versions: 1 2 3 4 5 6 7 8 9 10 11 12 13 14 15 16 17 18
000
FTUS43 KICT 291140
TAFICT
TAF
KICT 291140Z 2912/3012 01018G25KT 6SM -SHRA VCTS OVC008CB
      TEMPO 2912/2916 4SM +TSRA OVC006CB
     FM291600 01018G25KT P6SM -SHRA VCTS OVC008CB
     FM292200 01018G25KT P6SM VCTS OVC008CB=

USA.gov is the U.S. government's official web portal to all federal, state and local government web resources and services.